sensor_id;sensor_type;location;lat;lon;timestamp;pressure;altitude;pressure_sealevel;temperature;humidity
20624;BME280;10471;42.736;23.346;2023-08-07T00:02:00;94985.56;;;16.13;100.00
20624;BME280;10471;42.736;23.346;2023-08-07T00:04:26;94981.81;;;16.14;100.00
20624;BME280;10471;42.736;23.346;2023-08-07T00:06:51;94985.28;;;16.14;100.00
20624;BME280;10471;42.736;23.346;2023-08-07T00:09:16;94988.84;;;16.18;100.00
20624;BME280;10471;42.736;23.346;2023-08-07T00:11:42;94989.78;;;16.22;100.00
20624;BME280;10471;42.736;23.346;2023-08-07T00:14:07;94990.25;;;16.24;100.00
20624;BME280;10471;42.736;23.346;2023-08-07T00:16:33;94995.44;;;16.12;100.00
20624;BME280;10471;42.736;23.346;2023-08-07T00:18:58;94993.91;;;16.03;100.00
20624;BME280;10471;42.736;23.346;2023-08-07T00:21:23;94996.91;;;15.93;100.00
20624;BME280;10471;42.736;23.346;2023-08-07T00:23:49;94996.31;;;15.87;100.00
20624;BME280;10471;42.736;23.346;2023-08-07T00:26:15;94991.59;;;15.84;100.00
20624;BME280;10471;42.736;23.346;2023-08-07T00:28:41;94993.19;;;15.69;100.00
20624;BME280;10471;42.736;23.346;2023-08-07T00:31:06;94994.16;;;15.64;100.00
20624;BME280;10471;42.736;23.346;2023-08-07T00:33:31;94993.84;;;15.57;100.00
20624;BME280;10471;42.736;23.346;2023-08-07T00:35:57;94986.81;;;15.61;100.00
20624;BME280;10471;42.736;23.346;2023-08-07T00:38:22;94988.22;;;15.59;100.00
20624;BME280;10471;42.736;23.346;2023-08-07T00:40:47;94988.69;;;15.52;100.00
20624;BME280;10471;42.736;23.346;2023-08-07T00:43:13;94993.53;;;15.59;100.00
20624;BME280;10471;42.736;23.346;2023-08-07T00:45:42;94984.47;;;15.60;100.00
20624;BME280;10471;42.736;23.346;2023-08-07T00:48:09;94986.78;;;15.70;100.00
20624;BME280;10471;42.736;23.346;2023-08-07T00:50:34;94988.38;;;15.71;100.00
20624;BME280;10471;42.736;23.346;2023-08-07T00:53:01;94982.13;;;15.67;100.00
20624;BME280;10471;42.736;23.346;2023-08-07T00:55:26;94996.81;;;15.64;100.00
20624;BME280;10471;42.736;23.346;2023-08-07T00:57:52;94999.31;;;15.61;100.00
20624;BME280;10471;42.736;23.346;2023-08-07T01:00:18;95001.81;;;15.49;100.00
20624;BME280;10471;42.736;23.346;2023-08-07T01:02:45;95005.44;;;15.44;100.00
20624;BME280;10471;42.736;23.346;2023-08-07T01:05:12;95009.34;;;15.47;100.00
20624;BME280;10471;42.736;23.346;2023-08-07T01:07:38;95004.66;;;15.44;100.00
20624;BME280;10471;42.736;23.346;2023-08-07T01:10:03;95019.00;;;15.43;100.00
20624;BME280;10471;42.736;23.346;2023-08-07T01:12:30;95025.28;;;15.47;100.00
20624;BME280;10471;42.736;23.346;2023-08-07T01:15:12;95029.97;;;15.50;100.00
20624;BME280;10471;42.736;23.346;2023-08-07T01:17:41;95026.22;;;15.51;100.00
20624;BME280;10471;42.736;23.346;2023-08-07T01:20:08;95022.16;;;15.53;100.00
20624;BME280;10471;42.736;23.346;2023-08-07T01:22:34;95024.47;;;15.55;100.00
20624;BME280;10471;42.736;23.346;2023-08-07T01:24:59;95029.97;;;15.50;100.00
20624;BME280;10471;42.736;23.346;2023-08-07T01:27:36;95037.00;;;15.46;100.00
20624;BME280;10471;42.736;23.346;2023-08-07T01:30:16;95032.16;;;15.48;100.00
20624;BME280;10471;42.736;23.346;2023-08-07T01:33:08;95033.41;;;15.50;100.00
20624;BME280;10471;42.736;23.346;2023-08-07T01:35:37;95034.19;;;15.51;100.00
20624;BME280;10471;42.736;23.346;2023-08-07T01:38:04;95029.50;;;15.48;100.00
20624;BME280;10471;42.736;23.346;2023-08-07T01:40:30;95019.97;;;15.47;100.00
20624;BME280;10471;42.736;23.346;2023-08-07T01:42:56;95027.31;;;15.58;100.00
20624;BME280;10471;42.736;23.346;2023-08-07T01:45:27;95026.53;;;15.58;100.00
20624;BME280;10471;42.736;23.346;2023-08-07T01:47:52;95013.84;;;15.63;100.00
20624;BME280;10471;42.736;23.346;2023-08-07T01:50:19;95012.91;;;15.68;100.00
20624;BME280;10471;42.736;23.346;2023-08-07T01:52:45;95020.56;;;15.69;100.00
20624;BME280;10471;42.736;23.346;2023-08-07T01:55:15;95021.97;;;15.67;100.00
20624;BME280;10471;42.736;23.346;2023-08-07T01:57:40;95025.88;;;15.61;100.00
20624;BME280;10471;42.736;23.346;2023-08-07T02:00:06;95026.06;;;15.47;100.00
20624;BME280;10471;42.736;23.346;2023-08-07T02:02:33;95021.38;;;15.53;100.00
20624;BME280;10471;42.736;23.346;2023-08-07T02:04:58;95028.72;;;15.56;100.00
20624;BME280;10471;42.736;23.346;2023-08-07T02:07:24;95026.06;;;15.56;100.00
20624;BME280;10471;42.736;23.346;2023-08-07T02:09:49;95031.19;;;15.61;100.00
20624;BME280;10471;42.736;23.346;2023-08-07T02:12:15;95043.06;;;15.55;100.00
20624;BME280;10471;42.736;23.346;2023-08-07T02:14:40;95052.28;;;15.57;100.00
20624;BME280;10471;42.736;23.346;2023-08-07T02:17:06;95064.81;;;15.57;100.00
20624;BME280;10471;42.736;23.346;2023-08-07T02:19:31;95056.69;;;15.53;100.00
20624;BME280;10471;42.736;23.346;2023-08-07T02:21:57;95060.25;;;15.49;100.00
20624;BME280;10471;42.736;23.346;2023-08-07T02:24:22;95058.41;;;15.41;100.00
20624;BME280;10471;42.736;23.346;2023-08-07T02:26:48;95066.03;;;15.34;100.00
20624;BME280;10471;42.736;23.346;2023-08-07T02:29:13;95075.13;;;15.24;100.00
20624;BME280;10471;42.736;23.346;2023-08-07T02:31:39;95072.69;;;15.14;100.00
20624;BME280;10471;42.736;23.346;2023-08-07T02:34:04;95066.47;;;15.19;100.00
20624;BME280;10471;42.736;23.346;2023-08-07T02:36:29;95065.38;;;15.11;100.00
20624;BME280;10471;42.736;23.346;2023-08-07T02:38:55;95070.81;;;14.98;100.00
20624;BME280;10471;42.736;23.346;2023-08-07T02:41:20;95064.25;;;15.04;100.00
20624;BME280;10471;42.736;23.346;2023-08-07T02:43:46;95068.47;;;15.05;100.00
20624;BME280;10471;42.736;23.346;2023-08-07T02:46:11;95065.66;;;15.02;100.00
20624;BME280;10471;42.736;23.346;2023-08-07T02:48:36;95077.97;;;14.89;100.00
20624;BME280;10471;42.736;23.346;2023-08-07T02:51:02;95069.53;;;14.87;100.00
20624;BME280;10471;42.736;23.346;2023-08-07T02:53:28;95077.34;;;14.92;100.00
20624;BME280;10471;42.736;23.346;2023-08-07T02:55:53;95082.94;;;14.82;100.00
20624;BME280;10471;42.736;23.346;2023-08-07T02:58:18;95080.44;;;14.86;100.00
20624;BME280;10471;42.736;23.346;2023-08-07T03:00:44;95085.94;;;14.89;100.00
20624;BME280;10471;42.736;23.346;2023-08-07T03:03:09;95080.13;;;14.87;100.00
20624;BME280;10471;42.736;23.346;2023-08-07T03:05:35;95081.72;;;14.88;100.00
20624;BME280;10471;42.736;23.346;2023-08-07T03:08:00;95083.28;;;14.89;100.00
20624;BME280;10471;42.736;23.346;2023-08-07T03:10:26;95087.63;;;14.85;100.00
20624;BME280;10471;42.736;23.346;2023-08-07T03:12:51;95085.72;;;14.77;100.00
20624;BME280;10471;42.736;23.346;2023-08-07T03:15:17;95086.06;;;14.84;100.00
20624;BME280;10471;42.736;23.346;2023-08-07T03:17:43;95088.59;;;14.89;100.00
20624;BME280;10471;42.736;23.346;2023-08-07T03:20:08;95092.63;;;14.87;100.00
20624;BME280;10471;42.736;23.346;2023-08-07T03:22:34;95098.53;;;14.84;100.00
20624;BME280;10471;42.736;23.346;2023-08-07T03:25:00;95094.97;;;14.88;100.00
20624;BME280;10471;42.736;23.346;2023-08-07T03:27:25;95103.09;;;14.92;100.00
20624;BME280;10471;42.736;23.346;2023-08-07T03:29:51;95104.81;;;14.96;100.00
20624;BME280;10471;42.736;23.346;2023-08-07T03:32:18;95107.94;;;14.90;100.00
20624;BME280;10471;42.736;23.346;2023-08-07T03:34:43;95111.28;;;15.04;100.00
20624;BME280;10471;42.736;23.346;2023-08-07T03:37:09;95121.56;;;15.05;100.00
20624;BME280;10471;42.736;23.346;2023-08-07T03:39:34;95124.41;;;15.08;100.00
20624;BME280;10471;42.736;23.346;2023-08-07T03:41:59;95123.00;;;15.11;100.00
20624;BME280;10471;42.736;23.346;2023-08-07T03:44:25;95127.03;;;15.17;100.00
20624;BME280;10471;42.736;23.346;2023-08-07T03:46:50;95130.06;;;15.24;100.00
20624;BME280;10471;42.736;23.346;2023-08-07T03:49:16;95133.50;;;15.33;100.00
20624;BME280;10471;42.736;23.346;2023-08-07T03:51:42;95130.09;;;15.41;100.00
20624;BME280;10471;42.736;23.346;2023-08-07T03:54:07;95130.72;;;15.46;100.00
20624;BME280;10471;42.736;23.346;2023-08-07T03:56:33;95135.28;;;15.46;100.00
20624;BME280;10471;42.736;23.346;2023-08-07T03:59:03;95134.63;;;15.49;100.00
20624;BME280;10471;42.736;23.346;2023-08-07T04:01:28;95143.25;;;15.54;100.00
20624;BME280;10471;42.736;23.346;2023-08-07T04:03:53;95129.00;;;15.59;100.00
20624;BME280;10471;42.736;23.346;2023-08-07T04:06:19;95129.81;;;15.59;100.00
20624;BME280;10471;42.736;23.346;2023-08-07T04:08:46;95135.59;;;15.53;100.00
20624;BME280;10471;42.736;23.346;2023-08-07T04:11:11;95145.28;;;15.57;100.00
20624;BME280;10471;42.736;23.346;2023-08-07T04:13:37;95152.63;;;15.60;100.00
20624;BME280;10471;42.736;23.346;2023-08-07T04:16:02;95155.44;;;15.64;100.00
20624;BME280;10471;42.736;23.346;2023-08-07T04:18:29;95153.41;;;15.69;100.00
20624;BME280;10471;42.736;23.346;2023-08-07T04:20:56;95152.00;;;15.72;100.00
20624;BME280;10471;42.736;23.346;2023-08-07T04:23:22;95163.09;;;15.82;100.00
20624;BME280;10471;42.736;23.346;2023-08-07T04:25:48;95158.59;;;15.91;100.00
20624;BME280;10471;42.736;23.346;2023-08-07T04:28:13;95161.09;;;15.96;100.00
20624;BME280;10471;42.736;23.346;2023-08-07T04:30:40;95162.03;;;16.08;100.00
20624;BME280;10471;42.736;23.346;2023-08-07T04:33:05;95161.88;;;16.13;100.00
20624;BME280;10471;42.736;23.346;2023-08-07T04:35:31;95168.75;;;16.14;100.00
20624;BME280;10471;42.736;23.346;2023-08-07T04:37:56;95173.63;;;16.29;100.00
20624;BME280;10471;42.736;23.346;2023-08-07T04:40:22;95170.78;;;16.42;100.00
20624;BME280;10471;42.736;23.346;2023-08-07T04:42:49;95164.06;;;16.28;100.00
20624;BME280;10471;42.736;23.346;2023-08-07T04:45:14;95165.16;;;16.27;100.00
20624;BME280;10471;42.736;23.346;2023-08-07T04:47:40;95169.22;;;16.33;100.00
20624;BME280;10471;42.736;23.346;2023-08-07T04:50:06;95171.25;;;16.36;100.00
20624;BME280;10471;42.736;23.346;2023-08-07T04:52:32;95175.47;;;16.37;100.00
20624;BME280;10471;42.736;23.346;2023-08-07T04:54:57;95177.03;;;16.46;100.00
20624;BME280;10471;42.736;23.346;2023-08-07T04:57:23;95162.78;;;16.51;100.00
20624;BME280;10471;42.736;23.346;2023-08-07T04:59:48;95167.13;;;16.64;100.00
20624;BME280;10471;42.736;23.346;2023-08-07T05:02:13;95162.91;;;16.63;100.00
20624;BME280;10471;42.736;23.346;2023-08-07T05:04:39;95165.22;;;16.73;100.00
20624;BME280;10471;42.736;23.346;2023-08-07T05:07:05;95169.91;;;16.84;100.00
20624;BME280;10471;42.736;23.346;2023-08-07T05:09:30;95163.94;;;16.79;100.00
20624;BME280;10471;42.736;23.346;2023-08-07T05:11:56;95164.25;;;16.86;100.00
20624;BME280;10471;42.736;23.346;2023-08-07T05:14:21;95164.25;;;16.86;100.00
20624;BME280;10471;42.736;23.346;2023-08-07T05:16:47;95156.09;;;16.91;100.00
20624;BME280;10471;42.736;23.346;2023-08-07T05:19:13;95162.78;;;16.97;100.00
20624;BME280;10471;42.736;23.346;2023-08-07T05:21:38;95156.38;;;16.98;100.00
20624;BME280;10471;42.736;23.346;2023-08-07T05:24:04;95154.81;;;16.97;100.00
20624;BME280;10471;42.736;23.346;2023-08-07T05:26:30;95159.22;;;16.93;100.00
20624;BME280;10471;42.736;23.346;2023-08-07T05:28:56;95154.28;;;17.11;100.00
20624;BME280;10471;42.736;23.346;2023-08-07T05:31:24;95160.97;;;17.17;100.00
20624;BME280;10471;42.736;23.346;2023-08-07T05:33:49;95161.50;;;17.11;100.00
20624;BME280;10471;42.736;23.346;2023-08-07T05:36:15;95155.38;;;17.10;100.00
20624;BME280;10471;42.736;23.346;2023-08-07T05:38:40;95165.50;;;17.25;100.00
20624;BME280;10471;42.736;23.346;2023-08-07T05:41:05;95160.28;;;17.37;100.00
20624;BME280;10471;42.736;23.346;2023-08-07T05:43:31;95160.56;;;17.44;100.00
20624;BME280;10471;42.736;23.346;2023-08-07T05:45:57;95164.66;;;17.62;100.00
20624;BME280;10471;42.736;23.346;2023-08-07T05:48:22;95180.72;;;17.54;100.00
20624;BME280;10471;42.736;23.346;2023-08-07T05:50:48;95163.28;;;17.36;100.00
20624;BME280;10471;42.736;23.346;2023-08-07T05:53:13;95172.28;;;17.52;100.00
20624;BME280;10471;42.736;23.346;2023-08-07T05:55:41;95177.38;;;17.65;100.00
20624;BME280;10471;42.736;23.346;2023-08-07T05:58:07;95171.47;;;17.80;100.00
20624;BME280;10471;42.736;23.346;2023-08-07T06:00:33;95170.78;;;17.83;100.00
20624;BME280;10471;42.736;23.346;2023-08-07T06:02:58;95172.84;;;17.86;100.00
20624;BME280;10471;42.736;23.346;2023-08-07T06:05:24;95164.84;;;17.86;100.00
20624;BME280;10471;42.736;23.346;2023-08-07T06:07:49;95162.69;;;18.00;100.00
20624;BME280;10471;42.736;23.346;2023-08-07T06:10:15;95174.66;;;18.14;100.00
20624;BME280;10471;42.736;23.346;2023-08-07T06:12:41;95166.03;;;18.09;100.00
20624;BME280;10471;42.736;23.346;2023-08-07T06:15:06;95167.28;;;18.11;100.00
20624;BME280;10471;42.736;23.346;2023-08-07T06:17:32;95168.16;;;18.24;100.00
20624;BME280;10471;42.736;23.346;2023-08-07T06:19:57;95165.41;;;18.32;100.00
20624;BME280;10471;42.736;23.346;2023-08-07T06:22:23;95165.72;;;18.31;100.00
20624;BME280;10471;42.736;23.346;2023-08-07T06:24:48;95174.91;;;18.42;100.00
20624;BME280;10471;42.736;23.346;2023-08-07T06:27:14;95161.28;;;18.55;100.00
20624;BME280;10471;42.736;23.346;2023-08-07T06:29:39;95163.25;;;18.58;100.00
20624;BME280;10471;42.736;23.346;2023-08-07T06:32:05;95160.97;;;18.80;100.00
20624;BME280;10471;42.736;23.346;2023-08-07T06:34:31;95167.34;;;18.88;100.00
20624;BME280;10471;42.736;23.346;2023-08-07T06:36:56;95180.66;;;19.08;100.00
20624;BME280;10471;42.736;23.346;2023-08-07T06:39:22;95174.22;;;19.09;100.00
20624;BME280;10471;42.736;23.346;2023-08-07T06:41:47;95167.94;;;19.05;100.00
20624;BME280;10471;42.736;23.346;2023-08-07T06:44:12;95163.44;;;18.85;100.00
20624;BME280;10471;42.736;23.346;2023-08-07T06:46:38;95175.13;;;18.93;100.00
20624;BME280;10471;42.736;23.346;2023-08-07T06:49:03;95184.44;;;19.07;100.00
20624;BME280;10471;42.736;23.346;2023-08-07T06:51:29;95181.13;;;19.10;100.00
20624;BME280;10471;42.736;23.346;2023-08-07T06:53:54;95175.97;;;19.17;100.00
20624;BME280;10471;42.736;23.346;2023-08-07T06:56:19;95190.94;;;19.30;100.00
20624;BME280;10471;42.736;23.346;2023-08-07T06:58:45;95189.38;;;19.41;100.00
20624;BME280;10471;42.736;23.346;2023-08-07T07:01:10;95187.03;;;19.51;100.00
20624;BME280;10471;42.736;23.346;2023-08-07T07:03:36;95188.59;;;19.52;100.00
20624;BME280;10471;42.736;23.346;2023-08-07T07:06:01;95177.34;;;19.47;100.00
20624;BME280;10471;42.736;23.346;2023-08-07T07:08:27;95174.88;;;19.66;100.00
20624;BME280;10471;42.736;23.346;2023-08-07T07:10:52;95183.34;;;19.32;100.00
20624;BME280;10471;42.736;23.346;2023-08-07T07:13:17;95182.25;;;19.21;100.00
20624;BME280;10471;42.736;23.346;2023-08-07T07:15:43;95185.31;;;19.11;100.00
20624;BME280;10471;42.736;23.346;2023-08-07T07:18:08;95181.56;;;19.24;100.00
20624;BME280;10471;42.736;23.346;2023-08-07T07:20:33;95170.22;;;19.51;100.00
20624;BME280;10471;42.736;23.346;2023-08-07T07:22:59;95172.84;;;19.74;100.00
20624;BME280;10471;42.736;23.346;2023-08-07T07:25:27;95186.44;;;19.81;100.00
20624;BME280;10471;42.736;23.346;2023-08-07T07:27:52;95177.97;;;19.79;100.00
20624;BME280;10471;42.736;23.346;2023-08-07T07:30:18;95170.06;;;19.95;100.00
20624;BME280;10471;42.736;23.346;2023-08-07T07:32:44;95162.78;;;20.07;100.00
20624;BME280;10471;42.736;23.346;2023-08-07T07:35:09;95162.06;;;20.22;100.00
20624;BME280;10471;42.736;23.346;2023-08-07T07:37:34;95163.63;;;20.23;97.61
20624;BME280;10471;42.736;23.346;2023-08-07T07:40:00;95171.44;;;20.16;97.14
20624;BME280;10471;42.736;23.346;2023-08-07T07:42:25;95169.16;;;20.30;98.85
20624;BME280;10471;42.736;23.346;2023-08-07T07:44:51;95165.09;;;20.48;100.00
20624;BME280;10471;42.736;23.346;2023-08-07T07:47:16;95176.75;;;20.40;96.37
20624;BME280;10471;42.736;23.346;2023-08-07T07:49:45;95155.78;;;20.57;99.64
20624;BME280;10471;42.736;23.346;2023-08-07T07:52:13;95172.81;;;20.65;94.69
20624;BME280;10471;42.736;23.346;2023-08-07T07:54:38;95183.94;;;20.79;91.96
20624;BME280;10471;42.736;23.346;2023-08-07T07:57:04;95167.09;;;20.78;85.11
20624;BME280;10471;42.736;23.346;2023-08-07T07:59:29;95173.56;;;20.93;86.86
20624;BME280;10471;42.736;23.346;2023-08-07T08:01:55;95168.41;;;20.84;82.86
20624;BME280;10471;42.736;23.346;2023-08-07T08:04:20;95161.88;;;20.70;81.79
20624;BME280;10471;42.736;23.346;2023-08-07T08:06:46;95163.91;;;20.88;77.60
20624;BME280;10471;42.736;23.346;2023-08-07T08:09:13;95160.81;;;21.02;79.67
20624;BME280;10471;42.736;23.346;2023-08-07T08:11:38;95164.09;;;21.10;78.87
20624;BME280;10471;42.736;23.346;2023-08-07T08:14:04;95164.81;;;21.08;81.97
20624;BME280;10471;42.736;23.346;2023-08-07T08:16:29;95163.56;;;21.20;83.82
20624;BME280;10471;42.736;23.346;2023-08-07T08:18:54;95168.59;;;21.37;79.27
20624;BME280;10471;42.736;23.346;2023-08-07T08:21:20;95170.56;;;21.40;78.94
20624;BME280;10471;42.736;23.346;2023-08-07T08:23:45;95162.53;;;21.40;76.13
20624;BME280;10471;42.736;23.346;2023-08-07T08:26:10;95154.16;;;21.57;74.76
20624;BME280;10471;42.736;23.346;2023-08-07T08:28:36;95157.59;;;21.73;68.52
20624;BME280;10471;42.736;23.346;2023-08-07T08:31:01;95162.19;;;21.57;56.38
20624;BME280;10471;42.736;23.346;2023-08-07T08:33:27;95159.25;;;21.62;61.36
20624;BME280;10471;42.736;23.346;2023-08-07T08:35:52;95152.66;;;21.75;64.77
20624;BME280;10471;42.736;23.346;2023-08-07T08:38:17;95157.75;;;21.80;64.57
20624;BME280;10471;42.736;23.346;2023-08-07T08:40:43;95150.22;;;21.70;62.23
20624;BME280;10471;42.736;23.346;2023-08-07T08:43:12;95142.88;;;21.67;61.04
20624;BME280;10471;42.736;23.346;2023-08-07T08:45:39;95139.81;;;21.84;59.85
20624;BME280;10471;42.736;23.346;2023-08-07T08:48:07;95147.88;;;22.03;62.80
20624;BME280;10471;42.736;23.346;2023-08-07T08:50:33;95136.50;;;22.09;61.27
20624;BME280;10471;42.736;23.346;2023-08-07T08:52:59;95136.50;;;22.09;62.45
20624;BME280;10471;42.736;23.346;2023-08-07T08:55:25;95134.19;;;22.08;57.35
20624;BME280;10471;42.736;23.346;2023-08-07T08:57:52;95138.44;;;22.28;58.67
20624;BME280;10471;42.736;23.346;2023-08-07T09:00:19;95126.59;;;22.47;59.58
20624;BME280;10471;42.736;23.346;2023-08-07T09:02:47;95131.66;;;22.34;54.65
20624;BME280;10471;42.736;23.346;2023-08-07T09:05:18;95131.78;;;22.59;59.92
20624;BME280;10471;42.736;23.346;2023-08-07T09:07:45;95129.25;;;22.66;53.44
20624;BME280;10471;42.736;23.346;2023-08-07T09:10:12;95131.81;;;22.41;55.09
20624;BME280;10471;42.736;23.346;2023-08-07T09:13:00;95130.28;;;22.62;53.01
20624;BME280;10471;42.736;23.346;2023-08-07T09:15:25;95123.78;;;22.63;53.80
20624;BME280;10471;42.736;23.346;2023-08-07T09:17:54;95128.66;;;22.76;53.95
20624;BME280;10471;42.736;23.346;2023-08-07T09:20:20;95127.88;;;22.76;52.91
20624;BME280;10471;42.736;23.346;2023-08-07T09:22:46;95120.06;;;22.67;55.01
20624;BME280;10471;42.736;23.346;2023-08-07T09:25:12;95123.94;;;22.92;53.45
20624;BME280;10471;42.736;23.346;2023-08-07T09:27:38;95116.72;;;22.96;54.79
20624;BME280;10471;42.736;23.346;2023-08-07T09:30:05;95103.56;;;22.91;52.92
20624;BME280;10471;42.736;23.346;2023-08-07T09:32:33;95105.97;;;22.96;52.79
20624;BME280;10471;42.736;23.346;2023-08-07T09:34:59;95110.06;;;23.09;53.97
20624;BME280;10471;42.736;23.346;2023-08-07T09:37:26;95104.53;;;23.24;54.58
20624;BME280;10471;42.736;23.346;2023-08-07T09:39:52;95102.34;;;23.30;54.12
20624;BME280;10471;42.736;23.346;2023-08-07T09:42:17;95103.03;;;23.53;58.04
20624;BME280;10471;42.736;23.346;2023-08-07T09:44:43;95111.53;;;23.55;51.12
20624;BME280;10471;42.736;23.346;2023-08-07T09:47:14;95106.28;;;23.36;51.85
20624;BME280;10471;42.736;23.346;2023-08-07T09:49:40;95099.47;;;23.19;50.49
20624;BME280;10471;42.736;23.346;2023-08-07T09:52:07;95095.38;;;23.29;49.69
20624;BME280;10471;42.736;23.346;2023-08-07T09:54:33;95096.72;;;23.42;49.91
20624;BME280;10471;42.736;23.346;2023-08-07T09:56:59;95101.81;;;23.73;50.93
20624;BME280;10471;42.736;23.346;2023-08-07T09:59:27;95099.66;;;23.81;52.41
20624;BME280;10471;42.736;23.346;2023-08-07T10:01:53;95101.41;;;23.96;49.84
20624;BME280;10471;42.736;23.346;2023-08-07T10:04:20;95082.06;;;23.91;50.36
20624;BME280;10471;42.736;23.346;2023-08-07T10:06:46;95096.22;;;24.14;50.56
20624;BME280;10471;42.736;23.346;2023-08-07T10:09:12;95097.50;;;24.23;49.03
20624;BME280;10471;42.736;23.346;2023-08-07T10:11:38;95100.63;;;24.29;50.73
20624;BME280;10471;42.736;23.346;2023-08-07T10:14:05;95106.09;;;24.03;48.27
20624;BME280;10471;42.736;23.346;2023-08-07T10:16:31;95108.94;;;24.13;49.92
20624;BME280;10471;42.736;23.346;2023-08-07T10:18:57;95094.97;;;24.37;51.97
20624;BME280;10471;42.736;23.346;2023-08-07T10:21:24;95101.38;;;24.55;49.07
20624;BME280;10471;42.736;23.346;2023-08-07T10:23:52;95103.81;;;24.70;48.71
20624;BME280;10471;42.736;23.346;2023-08-07T10:26:20;95097.66;;;24.70;49.70
20624;BME280;10471;42.736;23.346;2023-08-07T10:28:48;95100.91;;;24.86;49.40
20624;BME280;10471;42.736;23.346;2023-08-07T10:31:16;95093.69;;;24.97;48.86
20624;BME280;10471;42.736;23.346;2023-08-07T10:33:42;95093.28;;;24.95;48.81
20624;BME280;10471;42.736;23.346;2023-08-07T10:36:10;95096.44;;;25.04;48.82
20624;BME280;10471;42.736;23.346;2023-08-07T10:38:36;95091.22;;;25.21;45.02
20624;BME280;10471;42.736;23.346;2023-08-07T10:41:09;95090.53;;;25.31;46.94
20624;BME280;10471;42.736;23.346;2023-08-07T10:43:43;95080.47;;;25.24;48.27
20624;BME280;10471;42.736;23.346;2023-08-07T10:46:14;95070.53;;;25.39;47.71
20624;BME280;10471;42.736;23.346;2023-08-07T10:48:48;95078.34;;;25.54;49.66
20624;BME280;10471;42.736;23.346;2023-08-07T10:51:19;95078.50;;;25.75;45.70
20624;BME280;10471;42.736;23.346;2023-08-07T10:53:46;95071.19;;;25.72;44.92
20624;BME280;10471;42.736;23.346;2023-08-07T10:56:17;95064.53;;;25.66;45.60
20624;BME280;10471;42.736;23.346;2023-08-07T10:58:49;95057.59;;;25.65;44.44
20624;BME280;10471;42.736;23.346;2023-08-07T11:01:39;95050.78;;;25.85;43.87
20624;BME280;10471;42.736;23.346;2023-08-07T11:04:12;95049.28;;;25.94;44.88
20624;BME280;10471;42.736;23.346;2023-08-07T11:06:40;95062.34;;;25.82;45.85
20624;BME280;10471;42.736;23.346;2023-08-07T11:09:08;95053.53;;;25.95;44.85
20624;BME280;10471;42.736;23.346;2023-08-07T11:11:37;95051.56;;;25.85;45.19
20624;BME280;10471;42.736;23.346;2023-08-07T11:14:13;95042.44;;;26.18;45.66
20624;BME280;10471;42.736;23.346;2023-08-07T11:16:39;95032.84;;;26.31;43.91
20624;BME280;10471;42.736;23.346;2023-08-07T11:19:05;95034.81;;;26.48;43.89
20624;BME280;10471;42.736;23.346;2023-08-07T11:21:31;95041.06;;;26.86;45.33
20624;BME280;10471;42.736;23.346;2023-08-07T11:23:57;95032.97;;;26.72;43.61
20624;BME280;10471;42.736;23.346;2023-08-07T11:26:22;95033.72;;;26.90;44.20
20624;BME280;10471;42.736;23.346;2023-08-07T11:28:50;95026.81;;;27.24;43.71
20624;BME280;10471;42.736;23.346;2023-08-07T11:31:17;95030.28;;;27.00;43.61
20624;BME280;10471;42.736;23.346;2023-08-07T11:33:43;95020.22;;;27.25;43.81
20624;BME280;10471;42.736;23.346;2023-08-07T11:36:12;95027.56;;;27.42;44.31
20624;BME280;10471;42.736;23.346;2023-08-07T11:38:40;95026.38;;;27.43;43.61
20624;BME280;10471;42.736;23.346;2023-08-07T11:41:08;95034.91;;;27.10;43.17
20624;BME280;10471;42.736;23.346;2023-08-07T11:43:34;95024.13;;;27.03;45.12
20624;BME280;10471;42.736;23.346;2023-08-07T11:46:03;95029.13;;;27.01;44.23
20624;BME280;10471;42.736;23.346;2023-08-07T11:48:30;95033.38;;;26.88;44.10
20624;BME280;10471;42.736;23.346;2023-08-07T11:50:57;95025.63;;;26.90;44.44
20624;BME280;10471;42.736;23.346;2023-08-07T11:53:24;95017.50;;;26.83;44.96
20624;BME280;10471;42.736;23.346;2023-08-07T11:56:12;95017.16;;;27.09;44.79
20624;BME280;10471;42.736;23.346;2023-08-07T11:58:45;95014.03;;;27.21;44.42
20624;BME280;10471;42.736;23.346;2023-08-07T12:01:18;95014.81;;;27.08;45.07
20624;BME280;10471;42.736;23.346;2023-08-07T12:03:50;95016.34;;;27.22;44.71
20624;BME280;10471;42.736;23.346;2023-08-07T12:06:16;95004.00;;;27.11;44.42
20624;BME280;10471;42.736;23.346;2023-08-07T12:08:42;95009.41;;;27.21;45.73
20624;BME280;10471;42.736;23.346;2023-08-07T12:11:12;95005.53;;;27.19;44.51
20624;BME280;10471;42.736;23.346;2023-08-07T12:13:42;95001.59;;;27.62;45.63
20624;BME280;10471;42.736;23.346;2023-08-07T12:16:09;94992.97;;;27.94;45.71
20624;BME280;10471;42.736;23.346;2023-08-07T12:18:36;94992.22;;;27.94;44.33
20624;BME280;10471;42.736;23.346;2023-08-07T12:21:05;95000.78;;;27.79;44.97
20624;BME280;10471;42.736;23.346;2023-08-07T12:23:34;94995.28;;;27.96;42.96
20624;BME280;10471;42.736;23.346;2023-08-07T12:26:01;94998.38;;;28.05;44.11
20624;BME280;10471;42.736;23.346;2023-08-07T12:28:26;94989.34;;;28.36;43.91
20624;BME280;10471;42.736;23.346;2023-08-07T12:30:52;94981.25;;;28.25;44.67
20624;BME280;10471;42.736;23.346;2023-08-07T12:33:18;94991.41;;;28.00;43.17
20624;BME280;10471;42.736;23.346;2023-08-07T12:35:44;94981.41;;;27.80;44.70
20624;BME280;10471;42.736;23.346;2023-08-07T12:38:09;94982.97;;;27.84;45.50
20624;BME280;10471;42.736;23.346;2023-08-07T12:40:35;94988.38;;;27.91;45.26